Buoy 62909

sailwx.info

Track history (hours):
 
Tides and Currents Weather Stations Pressure Air Temp Water Temp Dewpoint Dewpoint Depression Visibility Wind Speed Wind Dir Waves Ship Positions

Drifting buoy 62909

Last reported at 2016-Feb-13 22:42 UTC. Time now 2016-Feb-13 23:40 UTC.
Position N 37°60' E 004°04'.

Water temperature 16.2 ° C

Date/timePositionNaut miles runAvg speedWind from/ knotsBaromVisibWave heightAir tempDewpointWater temp
2016-Feb-13 22:42N 37°60' E 004°04'0 0.0 16.2
2016-Feb-13 21:55N 37°60' E 004°04'0 0.0 16.2
2016-Feb-13 21:09N 37°60' E 004°04'110.8 16.2
2016-Feb-13 21:02N 37°59' E 004°03'0 0.5 16.2
2016-Feb-13 20:12N 37°59' E 004°03'0 1.1 16.2
2016-Feb-13 20:01N 37°59' E 004°03'2 2.6 16.2
2016-Feb-13 19:24N 37°58' E 004°02'0 0.0
2016-Feb-13 18:28N 37°58' E 004°02'1 6.3 16.2
2016-Feb-13 18:21N 37°58' E 004°02'0 0.0 16.2
2016-Feb-13 17:39N 37°58' E 004°02'133.5 16.2
2016-Feb-13 17:38N 37°57' E 004°02'0 0.0 16.2
2016-Feb-13 16:45N 37°57' E 004°02'0 0.5 16.2
2016-Feb-13 16:00N 37°57' E 004°01'1 8.7 16.2
2016-Feb-13 15:54N 37°58' E 004°02'1 0.7 16.2
2016-Feb-13 14:25N 37°57' E 004°01'2 1.2 16.1
2016-Feb-13 12:38N 37°56' E 003°59'0 0.1 16.1
2016-Feb-13 11:25N 37°56' E 003°59'2 2.2 16.1
2016-Feb-13 10:32N 37°56' E 003°57'0 0.0
2016-Feb-13 09:49N 37°56' E 003°57'0 1.1 16.1
2016-Feb-13 09:45N 37°56' E 003°57'0 1.3 16.1
2016-Feb-13 09:40N 37°56' E 003°57'2 2.7 16.1
2016-Feb-13 08:54N 37°55' E 003°55'0 0.0 16.1
2016-Feb-13 08:04N 37°55' E 003°55'0 1.1 16.0
2016-Feb-13 07:51N 37°55' E 003°55'0 0.0 16.0
2016-Feb-13 06:13N 37°55' E 003°55'0 0.0 16.0
2016-Feb-13 06:12N 37°55' E 003°55'111.6 16.0
2016-Feb-13 06:06N 37°54' E 003°54'1 0.7 16.0
2016-Feb-13 04:34N 37°53' E 003°55'219.9 16.0
2016-Feb-13 04:28N 37°54' E 003°53'0 0.1 16.0
2016-Feb-13 02:52N 37°54' E 003°52'1 0.8 15.9
2016-Feb-13 01:18N 37°52' E 003°52'3 0.8 15.7
2016-Feb-12 21:30N 37°51' E 003°48'1 9.9 15.7
2016-Feb-12 21:21N 37°51' E 003°46'0 0.0 15.7
2016-Feb-12 20:43N 37°51' E 003°46'0 0.0 15.7
2016-Feb-12 20:38N 37°51' E 003°46'2 1.9
2016-Feb-12 19:42N 37°51' E 003°44'2 2.0 15.7
2016-Feb-12 18:54N 37°52' E 003°42'1 0.7 15.7
2016-Feb-12 18:00N 37°51' E 003°42'0 0.0 15.7
2016-Feb-12 17:46N 37°51' E 003°42'3 1.6 15.7
2016-Feb-12 16:10N 37°52' E 003°39'9 2.9 15.7
2016-Feb-12 12:52N 37°56' E 003°28'5 2.9 16.0
2016-Feb-12 11:00N 37°58' E 003°22'2 2.9 16.0
2016-Feb-12 10:09N 37°58' E 003°19'0 0.0 16.0
2016-Feb-12 10:06N 37°58' E 003°19'8 3.6 16.0
2016-Feb-12 08:02N 37°58' E 003°09'0 0.0 16.0
2016-Feb-12 06:45N 37°58' E 003°09'0 4.6 16.1
2016-Feb-12 06:39N 37°59' E 003°09'1 2.1 16.1
2016-Feb-12 06:24N 37°58' E 003°09'219.1 16.1
2016-Feb-12 06:17N 37°59' E 003°06'0 0.0 16.1
2016-Feb-12 04:47N 37°58' E 003°06'5 2.9 16.2
2016-Feb-12 03:06N 37°59' E 002°60'0 0.0 16.2
2016-Feb-12 01:30N 37°59' E 002°60'658.1
2016-Feb-12 01:24N 38°01' E 002°53'1 0.2 16.2
2016-Feb-11 21:40N 38°01' E 002°52'0 0.0 16.2
2016-Feb-11 21:04N 38°01' E 002°52'210.3 16.2
2016-Feb-11 20:53N 38°01' E 002°49'1 0.6 16.2
2016-Feb-11 20:04N 38°01' E 002°50'4 5.9 16.2
2016-Feb-11 19:24N 38°01' E 002°45'0 0.3 16.3
2016-Feb-11 18:26N 38°01' E 002°45'1 1.8 16.3
2016-Feb-11 18:05N 38°00' E 002°44'1 2.6 16.3
2016-Feb-11 17:51N 38°00' E 002°43'0 0.0 16.3
2016-Feb-11 17:46N 38°00' E 002°43'339.8 16.3
2016-Feb-11 17:42N 37°60' E 002°40'0 0.0 16.3
2016-Feb-11 16:45N 37°60' E 002°40'4 1.9 16.3
2016-Feb-11 14:47N 37°58' E 002°36'4 2.2 16.3
2016-Feb-11 13:08N 37°57' E 002°32'6 5.3 16.3
2016-Feb-11 12:05N 37°54' E 002°26'0 0.0 16.3
2016-Feb-11 11:16N 37°54' E 002°26'3 1.3 16.2
2016-Feb-11 08:49N 37°53' E 002°22'0 0.0 16.2
2016-Feb-11 08:12N 37°53' E 002°22'0 0.0 16.2
2016-Feb-11 07:07N 37°53' E 002°22'1 6.1 16.2
2016-Feb-11 07:02N 37°53' E 002°21'2 1.0 16.2
2016-Feb-11 04:59N 37°52' E 002°19'0 0.0 16.2
2016-Feb-11 03:55N 37°52' E 002°19'0 0.8 16.2
2016-Feb-11 03:20N 37°52' E 002°18'6 3.3 16.2
2016-Feb-11 01:38N 37°50' E 002°11'1 0.3 16.3
2016-Feb-10 21:16N 37°50' E 002°10'0 0.3 16.3
2016-Feb-10 19:53N 37°50' E 002°10'1 1.0 16.3
2016-Feb-10 18:47N 37°49' E 002°08'1 0.8 16.3
2016-Feb-10 17:11N 37°48' E 002°07'1 0.6 16.3
2016-Feb-10 14:59N 37°47' E 002°06'2 1.2 16.3
2016-Feb-10 13:07N 37°46' E 002°04'1 0.3 16.3
2016-Feb-10 10:04N 37°45' E 002°03'0 0.0 16.2
2016-Feb-10 10:00N 37°45' E 002°03'0 0.1 16.2
2016-Feb-10 09:06N 37°45' E 002°03'2 0.5 16.2
2016-Feb-10 05:48N 37°44' E 002°02'0 0.1 16.2
2016-Feb-10 05:06N 37°44' E 002°02'1 1.2 16.2
2016-Feb-10 04:22N 37°43' E 002°01'4 4.1 16.2
2016-Feb-10 03:26N 37°41' E 001°57'0 0.1 16.2
2016-Feb-09 21:40N 37°41' E 001°57'113.2 16.1
2016-Feb-09 21:35N 37°40' E 001°56'1 0.7 16.1
2016-Feb-09 20:41N 37°40' E 001°55'0 0.0 16.0
2016-Feb-09 20:27N 37°40' E 001°55'1 2.6 16.0
2016-Feb-09 19:55N 37°39' E 001°54'0 0.1 16.0
2016-Feb-09 19:11N 37°39' E 001°54'0 0.0
2016-Feb-09 19:08N 37°39' E 001°54'1 1.5
2016-Feb-09 18:47N 37°39' E 001°54'2 1.6 16.0
2016-Feb-09 17:35N 37°37' E 001°52'0 0.0 16.0
2016-Feb-09 17:12N 37°37' E 001°52'0 0.0 16.0
2016-Feb-09 16:50N 37°37' E 001°52'4 2.4 16.0
2016-Feb-09 15:01N 37°34' E 001°49'0 0.0 16.0
2016-Feb-09 13:27N 37°34' E 001°49'3 1.3 16.0
2016-Feb-09 11:08N 37°31' E 001°47'2 2.7 16.0
2016-Feb-09 10:18N 37°29' E 001°45'0 0.0 16.0
2016-Feb-09 09:29N 37°29' E 001°45'4 4.5 15.9
2016-Feb-09 08:40N 37°26' E 001°42'0 0.0 15.9
2016-Feb-09 07:00N 37°26' E 001°42'0 2.7 15.9
2016-Feb-09 06:53N 37°26' E 001°42'0 0.0 15.9
2016-Feb-09 06:37N 37°26' E 001°42'2 1.3 15.9
2016-Feb-09 05:22N 37°25' E 001°41'1 1.9 15.9
2016-Feb-09 04:54N 37°24' E 001°40'2 4.2
2016-Feb-09 04:31N 37°24' E 001°39'2 2.5 15.9
2016-Feb-09 03:37N 37°22' E 001°36'0 0.1 15.9
2016-Feb-09 02:01N 37°22' E 001°36'5 1.5 15.9
2016-Feb-08 22:52N 37°20' E 001°31'3 3.2 15.9
2016-Feb-08 22:01N 37°19' E 001°28'1 1.0 15.9
2016-Feb-08 21:05N 37°18' E 001°27'4 1.2 15.9
2016-Feb-08 17:54N 37°15' E 001°24'210.7 15.9
2016-Feb-08 17:45N 37°14' E 001°23'0 0.0 15.9
2016-Feb-08 16:56N 37°14' E 001°23'216.5 16.0
2016-Feb-08 16:48N 37°12' E 001°22'1 0.4 16.0
2016-Feb-08 15:20N 37°12' E 001°22'112.5 16.0
2016-Feb-08 15:17N 37°12' E 001°22'120.1
2016-Feb-08 15:13N 37°11' E 001°21'0 0.0 16.0
2016-Feb-08 13:42N 37°11' E 001°21'0 1.0 16.0
2016-Feb-08 13:33N 37°11' E 001°22'127.8 16.0
2016-Feb-08 13:30N 37°10' E 001°22'0 0.0 16.0
2016-Feb-08 11:57N 37°10' E 001°22'0 0.0 15.9
2016-Feb-08 11:29N 37°10' E 001°22'0 0.1 15.9
2016-Feb-08 10:45N 37°10' E 001°22'0 0.0 15.8
2016-Feb-08 10:40N 37°10' E 001°22'1 1.1 15.8
2016-Feb-08 09:53N 37°09' E 001°23'1 9.5 15.7
2016-Feb-08 09:49N 37°10' E 001°22'1 0.9 15.7
2016-Feb-08 08:59N 37°09' E 001°21'0 0.0 15.7
2016-Feb-08 08:10N 37°09' E 001°21'0 0.2 15.7
2016-Feb-08 07:08N 37°09' E 001°21'0 0.8 15.7
2016-Feb-08 06:39N 37°09' E 001°21'0 0.3 15.7
2016-Feb-08 05:32N 37°09' E 001°20'214.5 15.7
2016-Feb-08 05:25N 37°09' E 001°18'0 0.0 15.7
2016-Feb-08 05:20N 37°09' E 001°18'0 0.0 15.7
2016-Feb-08 04:57N 37°09' E 001°18'0 0.0 15.7
2016-Feb-08 03:52N 37°09' E 001°18'0 0.0 15.7
2016-Feb-08 03:47N 37°09' E 001°18'2 1.2 15.7
2016-Feb-08 02:16N 37°08' E 001°16'0 2.7 15.8
2016-Feb-08 02:11N 37°08' E 001°16'1 0.3 15.9
2016-Feb-07 22:20N 37°07' E 001°15'0 0.2 15.9
2016-Feb-07 21:22N 37°07' E 001°15'1 0.7 15.9
2016-Feb-07 20:35N 37°07' E 001°15'0 0.0 15.9
2016-Feb-07 19:51N 37°07' E 001°15'0 1.2 15.9
2016-Feb-07 19:44N 37°07' E 001°15'0 0.0 15.9
2016-Feb-07 18:50N 37°07' E 001°15'0 0.6 15.9
2016-Feb-07 18:24N 37°07' E 001°15'1 3.8 15.9
2016-Feb-07 18:13N 37°07' E 001°14'0 0.0 15.9
2016-Feb-07 17:05N 37°07' E 001°14'0 4.9 15.9
2016-Feb-07 17:00N 37°07' E 001°14'0 0.0 15.9
2016-Feb-07 16:47N 37°07' E 001°14'1 3.6 15.9
2016-Feb-07 16:33N 37°08' E 001°14'1 0.4 15.9
2016-Feb-07 13:49N 37°09' E 001°13'324.7 15.9
2016-Feb-07 13:42N 37°12' E 001°12'0 0.0 15.9
2016-Feb-07 11:46N 37°12' E 001°12'0 0.0 15.9
2016-Feb-07 11:06N 37°12' E 001°12'112.3 15.9
2016-Feb-07 11:01N 37°12' E 001°11'2 2.1 15.9
2016-Feb-07 10:05N 37°14' E 001°09'1 1.3 15.9
2016-Feb-07 09:16N 37°14' E 001°08'1 0.4 15.9
2016-Feb-07 07:38N 37°14' E 001°07'0 0.0 15.9
2016-Feb-07 07:26N 37°14' E 001°07'0 5.3 15.9
2016-Feb-07 07:22N 37°14' E 001°07'1 4.3 15.9
2016-Feb-07 07:08N 37°14' E 001°06'110.9 15.9
2016-Feb-07 07:03N 37°14' E 001°05'0 0.0 15.9
2016-Feb-07 06:02N 37°14' E 001°05'0 1.6 15.9
2016-Feb-07 05:51N 37°14' E 001°05'0 0.0 15.9
2016-Feb-07 05:41N 37°14' E 001°05'0 0.3 15.9
2016-Feb-07 05:25N 37°14' E 001°05'2 1.5 15.9
2016-Feb-07 04:20N 37°13' E 001°02'1 2.2 15.9
2016-Feb-07 04:04N 37°14' E 001°02'235.5 15.9
2016-Feb-07 04:01N 37°13' E 000°60'4 0.7 15.9
2016-Feb-06 21:53N 37°11' E 000°55'1 9.0 16.0
2016-Feb-06 21:43N 37°10' E 000°53'0 0.3 16.0
2016-Feb-06 21:08N 37°10' E 000°53'0 0.0 16.0
2016-Feb-06 21:01N 37°10' E 000°53'0 0.0 16.0
2016-Feb-06 20:57N 37°10' E 000°53'1 0.9 16.0
2016-Feb-06 20:21N 37°10' E 000°53'1 7.5 16.0
2016-Feb-06 20:14N 37°10' E 000°54'1 4.8 16.0
2016-Feb-06 20:03N 37°10' E 000°53'0 0.0 16.0
2016-Feb-06 19:21N 37°10' E 000°53'0 0.0
2016-Feb-06 18:43N 37°10' E 000°53'0 0.3 16.0
2016-Feb-06 17:20N 37°09' E 000°53'1 4.0 16.0
2016-Feb-06 17:10N 37°09' E 000°52'0 0.0 16.0
2016-Feb-06 17:01N 37°09' E 000°52'0 0.0 16.0
2016-Feb-06 16:59N 37°09' E 000°52'0 0.2
2016-Feb-06 15:35N 37°09' E 000°52'1 4.7 16.1
2016-Feb-06 15:27N 37°10' E 000°52'0 0.0 16.1
2016-Feb-06 14:04N 37°10' E 000°52'1 6.0 16.1
2016-Feb-06 13:52N 37°09' E 000°51'1 0.3 16.1
2016-Feb-06 12:18N 37°10' E 000°51'0 2.3 16.1
2016-Feb-06 12:09N 37°10' E 000°51'0 0.0 16.1
2016-Feb-06 11:18N 37°10' E 000°51'0 0.0 16.1
2016-Feb-06 10:31N 37°10' E 000°51'0 0.0 16.0
2016-Feb-06 10:27N 37°10' E 000°51'0 9.6 16.0
2016-Feb-06 10:24N 37°10' E 000°50'0 0.0 16.0
2016-Feb-06 09:47N 37°10' E 000°50'0 2.3 16.0
2016-Feb-06 09:44N 37°10' E 000°50'1 0.7 16.0
2016-Feb-06 08:49N 37°10' E 000°49'1 0.6 16.0
2016-Feb-06 06:33N 37°10' E 000°48'0 0.3 16.0
2016-Feb-06 05:51N 37°10' E 000°47'0 4.3 16.0
2016-Feb-06 05:47N 37°10' E 000°47'0 0.0 16.0
2016-Feb-06 04:50N 37°10' E 000°47'0 0.1 16.0
2016-Feb-06 02:31N 37°10' E 000°47'0 0.0 16.0
2016-Feb-06 00:53N 37°10' E 000°47'0 0.0 16.0
2016-Feb-05 22:14N 37°10' E 000°47'0 1.6 16.0
2016-Feb-05 22:05N 37°10' E 000°47'0 0.0 16.0
2016-Feb-05 21:27N 37°10' E 000°47'0 0.0
2016-Feb-05 20:34N 37°10' E 000°47'1 4.5 16.0
2016-Feb-05 20:27N 37°11' E 000°48'1 0.8 16.0
2016-Feb-05 19:45N 37°11' E 000°48'0 0.4
2016-Feb-05 19:10N 37°11' E 000°49'0 0.1 16.0
2016-Feb-05 17:39N 37°11' E 000°49'0 0.0 16.0
2016-Feb-05 17:32N 37°11' E 000°49'1 0.3 16.0
2016-Feb-05 15:54N 37°11' E 000°49'0 0.2 16.0
2016-Feb-05 14:18N 37°12' E 000°49'1 2.5 16.0
2016-Feb-05 14:04N 37°11' E 000°50'0 0.0 16.0
2016-Feb-05 10:04N 37°11' E 000°50'0 0.5 16.0
2016-Feb-05 09:15N 37°11' E 000°49'0 0.0 16.0
2016-Feb-05 09:08N 37°11' E 000°49'116.9 16.0
2016-Feb-05 09:05N 37°10' E 000°49'0 0.0 16.0
2016-Feb-05 08:19N 37°10' E 000°49'0 0.0 16.0
2016-Feb-05 07:50N 37°10' E 000°49'1 7.7 15.9
2016-Feb-05 07:43N 37°10' E 000°50'0 0.0 15.9
2016-Feb-05 07:04N 37°10' E 000°50'1 0.6 16.0
2016-Feb-05 06:12N 37°09' E 000°51'0 0.0 16.0
2016-Feb-05 05:59N 37°09' E 000°51'2 1.0 16.0
2016-Feb-05 03:43N 37°09' E 000°54'0 0.0 16.0
2016-Feb-05 02:47N 37°09' E 000°54'0 3.9 16.0
2016-Feb-05 02:40N 37°09' E 000°54'2 0.5 16.0
2016-Feb-04 22:35N 37°10' E 000°56'0 0.5 16.0
2016-Feb-04 21:42N 37°10' E 000°56'114.8 16.0
2016-Feb-04 21:39N 37°10' E 000°57'0 0.0 16.0
2016-Feb-04 20:53N 37°10' E 000°57'1 6.2 16.0
2016-Feb-04 20:48N 37°11' E 000°57'0 0.0 16.0
2016-Feb-04 20:08N 37°11' E 000°57'0 0.4 16.0
2016-Feb-04 19:43N 37°11' E 000°57'1 1.0 16.0
2016-Feb-04 19:10N 37°11' E 000°57'0 0.3 16.0
2016-Feb-04 18:04N 37°11' E 000°57'0 1.8 16.0
2016-Feb-04 18:02N 37°11' E 000°57'0 0.7 16.0
2016-Feb-04 17:58N 37°11' E 000°57'0 0.0 16.0
2016-Feb-04 17:44N 37°11' E 000°57'0 0.2 16.0
2016-Feb-04 16:26N 37°12' E 000°57'0 0.0 16.0
2016-Feb-04 16:17N 37°12' E 000°57'0 0.2 16.0
2016-Feb-04 15:58N 37°12' E 000°57'1 0.6 16.0
2016-Feb-04 14:25N 37°11' E 000°58'2 1.0 16.1
2016-Feb-04 12:40N 37°09' E 000°58'0 0.3 16.1
2016-Feb-04 11:12N 37°10' E 000°58'1 0.9 16.0
2016-Feb-04 10:22N 37°09' E 000°59'1 0.2 16.0
2016-Feb-04 07:55N 37°10' E 000°60'113.4 16.0
2016-Feb-04 07:49N 37°10' E 001°01'0 0.0 16.0
2016-Feb-04 06:43N 37°10' E 001°01'0 1.0 16.1
2016-Feb-04 06:17N 37°09' E 001°02'1 2.1 16.1
2016-Feb-04 05:52N 37°10' E 001°03'0 0.5 16.1
2016-Feb-04 04:56N 37°10' E 001°03'2 1.2 16.2
2016-Feb-04 02:52N 37°12' E 001°05'1 0.6 16.1
2016-Feb-04 01:14N 37°13' E 001°06'1 0.3 16.2
2016-Feb-03 22:49N 37°13' E 001°06'   16.2
Track history (hours):
 
Tides and Currents Weather Stations Pressure Air Temp Water Temp Dewpoint Dewpoint Depression Visibility Wind Speed Wind Dir Waves Ship Positions

Drifting buoy 62909

Last reported at 2016-Feb-13 22:42 UTC. Time now 2016-Feb-13 23:40 UTC.
Position N 37°60' E 004°04'.

Water temperature 16.2 ° C

Date/timePositionNaut miles runAvg speedWind from/ knotsBaromVisibWave heightAir tempDewpointWater temp
2016-Feb-13 22:42N 37°60' E 004°04'0 0.0 16.2
2016-Feb-13 21:55N 37°60' E 004°04'0 0.0 16.2
2016-Feb-13 21:09N 37°60' E 004°04'110.8 16.2
2016-Feb-13 21:02N 37°59' E 004°03'0 0.5 16.2
2016-Feb-13 20:12N 37°59' E 004°03'0 1.1 16.2
2016-Feb-13 20:01N 37°59' E 004°03'2 2.6 16.2
2016-Feb-13 19:24N 37°58' E 004°02'0 0.0
2016-Feb-13 18:28N 37°58' E 004°02'1 6.3 16.2
2016-Feb-13 18:21N 37°58' E 004°02'0 0.0 16.2
2016-Feb-13 17:39N 37°58' E 004°02'133.5 16.2
2016-Feb-13 17:38N 37°57' E 004°02'0 0.0 16.2
2016-Feb-13 16:45N 37°57' E 004°02'0 0.5 16.2
2016-Feb-13 16:00N 37°57' E 004°01'1 8.7 16.2
2016-Feb-13 15:54N 37°58' E 004°02'1 0.7 16.2
2016-Feb-13 14:25N 37°57' E 004°01'2 1.2 16.1
2016-Feb-13 12:38N 37°56' E 003°59'0 0.1 16.1
2016-Feb-13 11:25N 37°56' E 003°59'2 2.2 16.1
2016-Feb-13 10:32N 37°56' E 003°57'0 0.0
2016-Feb-13 09:49N 37°56' E 003°57'0 1.1 16.1
2016-Feb-13 09:45N 37°56' E 003°57'0 1.3 16.1
2016-Feb-13 09:40N 37°56' E 003°57'2 2.7 16.1
2016-Feb-13 08:54N 37°55' E 003°55'0 0.0 16.1
2016-Feb-13 08:04N 37°55' E 003°55'0 1.1 16.0
2016-Feb-13 07:51N 37°55' E 003°55'0 0.0 16.0
2016-Feb-13 06:13N 37°55' E 003°55'0 0.0 16.0
2016-Feb-13 06:12N 37°55' E 003°55'111.6 16.0
2016-Feb-13 06:06N 37°54' E 003°54'1 0.7 16.0
2016-Feb-13 04:34N 37°53' E 003°55'219.9 16.0
2016-Feb-13 04:28N 37°54' E 003°53'0 0.1 16.0
2016-Feb-13 02:52N 37°54' E 003°52'1 0.8 15.9
2016-Feb-13 01:18N 37°52' E 003°52'3 0.8 15.7
2016-Feb-12 21:30N 37°51' E 003°48'1 9.9 15.7
2016-Feb-12 21:21N 37°51' E 003°46'0 0.0 15.7
2016-Feb-12 20:43N 37°51' E 003°46'0 0.0 15.7
2016-Feb-12 20:38N 37°51' E 003°46'2 1.9
2016-Feb-12 19:42N 37°51' E 003°44'2 2.0 15.7
2016-Feb-12 18:54N 37°52' E 003°42'1 0.7 15.7
2016-Feb-12 18:00N 37°51' E 003°42'0 0.0 15.7
2016-Feb-12 17:46N 37°51' E 003°42'3 1.6 15.7
2016-Feb-12 16:10N 37°52' E 003°39'9 2.9 15.7
2016-Feb-12 12:52N 37°56' E 003°28'5 2.9 16.0
2016-Feb-12 11:00N 37°58' E 003°22'2 2.9 16.0
2016-Feb-12 10:09N 37°58' E 003°19'0 0.0 16.0
2016-Feb-12 10:06N 37°58' E 003°19'8 3.6 16.0
2016-Feb-12 08:02N 37°58' E 003°09'0 0.0 16.0
2016-Feb-12 06:45N 37°58' E 003°09'0 4.6 16.1
2016-Feb-12 06:39N 37°59' E 003°09'1 2.1 16.1
2016-Feb-12 06:24N 37°58' E 003°09'219.1 16.1
2016-Feb-12 06:17N 37°59' E 003°06'0 0.0 16.1
2016-Feb-12 04:47N 37°58' E 003°06'5 2.9 16.2
2016-Feb-12 03:06N 37°59' E 002°60'0 0.0 16.2
2016-Feb-12 01:30N 37°59' E 002°60'658.1
2016-Feb-12 01:24N 38°01' E 002°53'1 0.2 16.2
2016-Feb-11 21:40N 38°01' E 002°52'0 0.0 16.2
2016-Feb-11 21:04N 38°01' E 002°52'210.3 16.2
2016-Feb-11 20:53N 38°01' E 002°49'1 0.6 16.2
2016-Feb-11 20:04N 38°01' E 002°50'4 5.9 16.2
2016-Feb-11 19:24N 38°01' E 002°45'0 0.3 16.3
2016-Feb-11 18:26N 38°01' E 002°45'1 1.8 16.3
2016-Feb-11 18:05N 38°00' E 002°44'1 2.6 16.3
2016-Feb-11 17:51N 38°00' E 002°43'0 0.0 16.3
2016-Feb-11 17:46N 38°00' E 002°43'339.8 16.3
2016-Feb-11 17:42N 37°60' E 002°40'0 0.0 16.3
2016-Feb-11 16:45N 37°60' E 002°40'4 1.9 16.3
2016-Feb-11 14:47N 37°58' E 002°36'4 2.2 16.3
2016-Feb-11 13:08N 37°57' E 002°32'6 5.3 16.3
2016-Feb-11 12:05N 37°54' E 002°26'0 0.0 16.3
2016-Feb-11 11:16N 37°54' E 002°26'3 1.3 16.2
2016-Feb-11 08:49N 37°53' E 002°22'0 0.0 16.2
2016-Feb-11 08:12N 37°53' E 002°22'0 0.0 16.2
2016-Feb-11 07:07N 37°53' E 002°22'1 6.1 16.2
2016-Feb-11 07:02N 37°53' E 002°21'2 1.0 16.2
2016-Feb-11 04:59N 37°52' E 002°19'0 0.0 16.2
2016-Feb-11 03:55N 37°52' E 002°19'0 0.8 16.2
2016-Feb-11 03:20N 37°52' E 002°18'6 3.3 16.2
2016-Feb-11 01:38N 37°50' E 002°11'1 0.3 16.3
2016-Feb-10 21:16N 37°50' E 002°10'0 0.3 16.3
2016-Feb-10 19:53N 37°50' E 002°10'1 1.0 16.3
2016-Feb-10 18:47N 37°49' E 002°08'1 0.8 16.3
2016-Feb-10 17:11N 37°48' E 002°07'1 0.6 16.3
2016-Feb-10 14:59N 37°47' E 002°06'2 1.2 16.3
2016-Feb-10 13:07N 37°46' E 002°04'1 0.3 16.3
2016-Feb-10 10:04N 37°45' E 002°03'0 0.0 16.2
2016-Feb-10 10:00N 37°45' E 002°03'0 0.1 16.2
2016-Feb-10 09:06N 37°45' E 002°03'2 0.5 16.2
2016-Feb-10 05:48N 37°44' E 002°02'0 0.1 16.2
2016-Feb-10 05:06N 37°44' E 002°02'1 1.2 16.2
2016-Feb-10 04:22N 37°43' E 002°01'4 4.1 16.2
2016-Feb-10 03:26N 37°41' E 001°57'0 0.1 16.2
2016-Feb-09 21:40N 37°41' E 001°57'113.2 16.1
2016-Feb-09 21:35N 37°40' E 001°56'1 0.7 16.1
2016-Feb-09 20:41N 37°40' E 001°55'0 0.0 16.0
2016-Feb-09 20:27N 37°40' E 001°55'1 2.6 16.0
2016-Feb-09 19:55N 37°39' E 001°54'0 0.1 16.0
2016-Feb-09 19:11N 37°39' E 001°54'0 0.0
2016-Feb-09 19:08N 37°39' E 001°54'1 1.5
2016-Feb-09 18:47N 37°39' E 001°54'2 1.6 16.0
2016-Feb-09 17:35N 37°37' E 001°52'0 0.0 16.0
2016-Feb-09 17:12N 37°37' E 001°52'0 0.0 16.0
2016-Feb-09 16:50N 37°37' E 001°52'4 2.4 16.0
2016-Feb-09 15:01N 37°34' E 001°49'0 0.0 16.0
2016-Feb-09 13:27N 37°34' E 001°49'3 1.3 16.0
2016-Feb-09 11:08N 37°31' E 001°47'2 2.7 16.0
2016-Feb-09 10:18N 37°29' E 001°45'0 0.0 16.0
2016-Feb-09 09:29N 37°29' E 001°45'4 4.5 15.9
2016-Feb-09 08:40N 37°26' E 001°42'0 0.0 15.9
2016-Feb-09 07:00N 37°26' E 001°42'0 2.7 15.9
2016-Feb-09 06:53N 37°26' E 001°42'0 0.0 15.9
2016-Feb-09 06:37N 37°26' E 001°42'2 1.3 15.9
2016-Feb-09 05:22N 37°25' E 001°41'1 1.9 15.9
2016-Feb-09 04:54N 37°24' E 001°40'2 4.2
2016-Feb-09 04:31N 37°24' E 001°39'2 2.5 15.9
2016-Feb-09 03:37N 37°22' E 001°36'0 0.1 15.9
2016-Feb-09 02:01N 37°22' E 001°36'5 1.5 15.9
2016-Feb-08 22:52N 37°20' E 001°31'3 3.2 15.9
2016-Feb-08 22:01N 37°19' E 001°28'1 1.0 15.9
2016-Feb-08 21:05N 37°18' E 001°27'4 1.2 15.9
2016-Feb-08 17:54N 37°15' E 001°24'210.7 15.9
2016-Feb-08 17:45N 37°14' E 001°23'0 0.0 15.9
2016-Feb-08 16:56N 37°14' E 001°23'216.5 16.0
2016-Feb-08 16:48N 37°12' E 001°22'1 0.4 16.0
2016-Feb-08 15:20N 37°12' E 001°22'112.5 16.0
2016-Feb-08 15:17N 37°12' E 001°22'120.1
2016-Feb-08 15:13N 37°11' E 001°21'0 0.0 16.0
2016-Feb-08 13:42N 37°11' E 001°21'0 1.0 16.0
2016-Feb-08 13:33N 37°11' E 001°22'127.8 16.0
2016-Feb-08 13:30N 37°10' E 001°22'0 0.0 16.0
2016-Feb-08 11:57N 37°10' E 001°22'0 0.0 15.9
2016-Feb-08 11:29N 37°10' E 001°22'0 0.1 15.9
2016-Feb-08 10:45N 37°10' E 001°22'0 0.0 15.8
2016-Feb-08 10:40N 37°10' E 001°22'1 1.1 15.8
2016-Feb-08 09:53N 37°09' E 001°23'1 9.5 15.7
2016-Feb-08 09:49N 37°10' E 001°22'1 0.9 15.7
2016-Feb-08 08:59N 37°09' E 001°21'0 0.0 15.7
2016-Feb-08 08:10N 37°09' E 001°21'0 0.2 15.7
2016-Feb-08 07:08N 37°09' E 001°21'0 0.8 15.7
2016-Feb-08 06:39N 37°09' E 001°21'0 0.3 15.7
2016-Feb-08 05:32N 37°09' E 001°20'214.5 15.7
2016-Feb-08 05:25N 37°09' E 001°18'0 0.0 15.7
2016-Feb-08 05:20N 37°09' E 001°18'0 0.0 15.7
2016-Feb-08 04:57N 37°09' E 001°18'0 0.0 15.7
2016-Feb-08 03:52N 37°09' E 001°18'0 0.0 15.7
2016-Feb-08 03:47N 37°09' E 001°18'2 1.2 15.7
2016-Feb-08 02:16N 37°08' E 001°16'0 2.7 15.8
2016-Feb-08 02:11N 37°08' E 001°16'1 0.3 15.9
2016-Feb-07 22:20N 37°07' E 001°15'0 0.2 15.9
2016-Feb-07 21:22N 37°07' E 001°15'1 0.7 15.9
2016-Feb-07 20:35N 37°07' E 001°15'0 0.0 15.9
2016-Feb-07 19:51N 37°07' E 001°15'0 1.2 15.9
2016-Feb-07 19:44N 37°07' E 001°15'0 0.0 15.9
2016-Feb-07 18:50N 37°07' E 001°15'0 0.6 15.9
2016-Feb-07 18:24N 37°07' E 001°15'1 3.8 15.9
2016-Feb-07 18:13N 37°07' E 001°14'0 0.0 15.9
2016-Feb-07 17:05N 37°07' E 001°14'0 4.9 15.9
2016-Feb-07 17:00N 37°07' E 001°14'0 0.0 15.9
2016-Feb-07 16:47N 37°07' E 001°14'1 3.6 15.9
2016-Feb-07 16:33N 37°08' E 001°14'1 0.4 15.9
2016-Feb-07 13:49N 37°09' E 001°13'324.7 15.9
2016-Feb-07 13:42N 37°12' E 001°12'0 0.0 15.9
2016-Feb-07 11:46N 37°12' E 001°12'0 0.0 15.9
2016-Feb-07 11:06N 37°12' E 001°12'112.3 15.9
2016-Feb-07 11:01N 37°12' E 001°11'2 2.1 15.9
2016-Feb-07 10:05N 37°14' E 001°09'1 1.3 15.9
2016-Feb-07 09:16N 37°14' E 001°08'1 0.4 15.9
2016-Feb-07 07:38N 37°14' E 001°07'0 0.0 15.9
2016-Feb-07 07:26N 37°14' E 001°07'0 5.3 15.9
2016-Feb-07 07:22N 37°14' E 001°07'1 4.3 15.9
2016-Feb-07 07:08N 37°14' E 001°06'110.9 15.9
2016-Feb-07 07:03N 37°14' E 001°05'0 0.0 15.9
2016-Feb-07 06:02N 37°14' E 001°05'0 1.6 15.9
2016-Feb-07 05:51N 37°14' E 001°05'0 0.0 15.9
2016-Feb-07 05:41N 37°14' E 001°05'0 0.3 15.9
2016-Feb-07 05:25N 37°14' E 001°05'2 1.5 15.9
2016-Feb-07 04:20N 37°13' E 001°02'1 2.2 15.9
2016-Feb-07 04:04N 37°14' E 001°02'235.5 15.9
2016-Feb-07 04:01N 37°13' E 000°60'4 0.7 15.9
2016-Feb-06 21:53N 37°11' E 000°55'1 9.0 16.0
2016-Feb-06 21:43N 37°10' E 000°53'0 0.3 16.0
2016-Feb-06 21:08N 37°10' E 000°53'0 0.0 16.0
2016-Feb-06 21:01N 37°10' E 000°53'0 0.0 16.0
2016-Feb-06 20:57N 37°10' E 000°53'1 0.9 16.0
2016-Feb-06 20:21N 37°10' E 000°53'1 7.5 16.0
2016-Feb-06 20:14N 37°10' E 000°54'1 4.8 16.0
2016-Feb-06 20:03N 37°10' E 000°53'0 0.0 16.0
2016-Feb-06 19:21N 37°10' E 000°53'0 0.0
2016-Feb-06 18:43N 37°10' E 000°53'0 0.3 16.0
2016-Feb-06 17:20N 37°09' E 000°53'1 4.0 16.0
2016-Feb-06 17:10N 37°09' E 000°52'0 0.0 16.0
2016-Feb-06 17:01N 37°09' E 000°52'0 0.0 16.0
2016-Feb-06 16:59N 37°09' E 000°52'0 0.2
2016-Feb-06 15:35N 37°09' E 000°52'1 4.7 16.1
2016-Feb-06 15:27N 37°10' E 000°52'0 0.0 16.1
2016-Feb-06 14:04N 37°10' E 000°52'1 6.0 16.1
2016-Feb-06 13:52N 37°09' E 000°51'1 0.3 16.1
2016-Feb-06 12:18N 37°10' E 000°51'0 2.3 16.1
2016-Feb-06 12:09N 37°10' E 000°51'0 0.0 16.1
2016-Feb-06 11:18N 37°10' E 000°51'0 0.0 16.1
2016-Feb-06 10:31N 37°10' E 000°51'0 0.0 16.0
2016-Feb-06 10:27N 37°10' E 000°51'0 9.6 16.0
2016-Feb-06 10:24N 37°10' E 000°50'0 0.0 16.0
2016-Feb-06 09:47N 37°10' E 000°50'0 2.3 16.0
2016-Feb-06 09:44N 37°10' E 000°50'1 0.7 16.0
2016-Feb-06 08:49N 37°10' E 000°49'1 0.6 16.0
2016-Feb-06 06:33N 37°10' E 000°48'0 0.3 16.0
2016-Feb-06 05:51N 37°10' E 000°47'0 4.3 16.0
2016-Feb-06 05:47N 37°10' E 000°47'0 0.0 16.0
2016-Feb-06 04:50N 37°10' E 000°47'0 0.1 16.0
2016-Feb-06 02:31N 37°10' E 000°47'0 0.0 16.0
2016-Feb-06 00:53N 37°10' E 000°47'0 0.0 16.0
2016-Feb-05 22:14N 37°10' E 000°47'0 1.6 16.0
2016-Feb-05 22:05N 37°10' E 000°47'0 0.0 16.0
2016-Feb-05 21:27N 37°10' E 000°47'0 0.0
2016-Feb-05 20:34N 37°10' E 000°47'1 4.5 16.0
2016-Feb-05 20:27N 37°11' E 000°48'1 0.8 16.0
2016-Feb-05 19:45N 37°11' E 000°48'0 0.4
2016-Feb-05 19:10N 37°11' E 000°49'0 0.1 16.0
2016-Feb-05 17:39N 37°11' E 000°49'0 0.0 16.0
2016-Feb-05 17:32N 37°11' E 000°49'1 0.3 16.0
2016-Feb-05 15:54N 37°11' E 000°49'0 0.2 16.0
2016-Feb-05 14:18N 37°12' E 000°49'1 2.5 16.0
2016-Feb-05 14:04N 37°11' E 000°50'0 0.0 16.0
2016-Feb-05 10:04N 37°11' E 000°50'0 0.5 16.0
2016-Feb-05 09:15N 37°11' E 000°49'0 0.0 16.0
2016-Feb-05 09:08N 37°11' E 000°49'116.9 16.0
2016-Feb-05 09:05N 37°10' E 000°49'0 0.0 16.0
2016-Feb-05 08:19N 37°10' E 000°49'0 0.0 16.0
2016-Feb-05 07:50N 37°10' E 000°49'1 7.7 15.9
2016-Feb-05 07:43N 37°10' E 000°50'0 0.0 15.9
2016-Feb-05 07:04N 37°10' E 000°50'1 0.6 16.0
2016-Feb-05 06:12N 37°09' E 000°51'0 0.0 16.0
2016-Feb-05 05:59N 37°09' E 000°51'2 1.0 16.0
2016-Feb-05 03:43N 37°09' E 000°54'0 0.0 16.0
2016-Feb-05 02:47N 37°09' E 000°54'0 3.9 16.0
2016-Feb-05 02:40N 37°09' E 000°54'2 0.5 16.0
2016-Feb-04 22:35N 37°10' E 000°56'0 0.5 16.0
2016-Feb-04 21:42N 37°10' E 000°56'114.8 16.0
2016-Feb-04 21:39N 37°10' E 000°57'0 0.0 16.0
2016-Feb-04 20:53N 37°10' E 000°57'1 6.2 16.0
2016-Feb-04 20:48N 37°11' E 000°57'0 0.0 16.0
2016-Feb-04 20:08N 37°11' E 000°57'0 0.4 16.0
2016-Feb-04 19:43N 37°11' E 000°57'1 1.0 16.0
2016-Feb-04 19:10N 37°11' E 000°57'0 0.3 16.0
2016-Feb-04 18:04N 37°11' E 000°57'0 1.8 16.0
2016-Feb-04 18:02N 37°11' E 000°57'0 0.7 16.0
2016-Feb-04 17:58N 37°11' E 000°57'0 0.0 16.0
2016-Feb-04 17:44N 37°11' E 000°57'0 0.2 16.0
2016-Feb-04 16:26N 37°12' E 000°57'0 0.0 16.0
2016-Feb-04 16:17N 37°12' E 000°57'0 0.2 16.0
2016-Feb-04 15:58N 37°12' E 000°57'1 0.6 16.0
2016-Feb-04 14:25N 37°11' E 000°58'2 1.0 16.1
2016-Feb-04 12:40N 37°09' E 000°58'0 0.3 16.1
2016-Feb-04 11:12N 37°10' E 000°58'1 0.9 16.0
2016-Feb-04 10:22N 37°09' E 000°59'1 0.2 16.0
2016-Feb-04 07:55N 37°10' E 000°60'113.4 16.0
2016-Feb-04 07:49N 37°10' E 001°01'0 0.0 16.0
2016-Feb-04 06:43N 37°10' E 001°01'0 1.0 16.1
2016-Feb-04 06:17N 37°09' E 001°02'1 2.1 16.1
2016-Feb-04 05:52N 37°10' E 001°03'0 0.5 16.1
2016-Feb-04 04:56N 37°10' E 001°03'2 1.2 16.2
2016-Feb-04 02:52N 37°12' E 001°05'1 0.6 16.1
2016-Feb-04 01:14N 37°13' E 001°06'1 0.3 16.2
2016-Feb-03 22:49N 37°13' E 001°06'   16.2

Dump ship's entire track history